Wednesday, October 24, 2018, 2:48 AM GMT
Back to Local

CYUL, Montreal / Pierre Elliot Trudeau International Airport, Que

Location: , , Canada Lat: 45.467
Local Time: 2:48 AM GMT ( 2:48 GMT) Lon: -73.75
Time Zone: GMT Elev: 101 ft

Show me the last for .
Show Coded

Time T Td Feel RH Dir Speed Gust Alt SLP Vis Weather Sky Remarks
2018-10-24 02:00 39 28 32 64 30° 13 - 30.01 30.01 15 FEW062 SCT110 SCT150 BKN240 None
2018-10-24 01:00 41 28 33 60 20° 15 - 30.00 30.01 15 SCT060 SCT075 BKN140 None
2018-10-24 00:00 41 30 33 65 20° 15 - 30.00 30.01 15 FEW030 FEW050 BKN140 None
2018-10-23 23:45 41 30 33 65 30° 15 - 30.00 30.01 15 FEW033 SCT050 BKN140 None
2018-10-23 23:00 43 30 34 60 20° 12 20 30.00 30.01 15 -SHRA BKN033 OVC050 None
2018-10-23 22:00 43 32 35 65 30° 17 - 29.99 30.00 15 BKN035 OVC050 None
2018-10-23 21:00 45 32 36 61 30° 15 21 29.98 29.99 15 BKN040 OVC085 None
2018-10-23 20:00 45 32 36 61 10° 15 22 29.98 29.99 15 BKN040 OVC060 None
2018-10-23 19:00 46 34 39 61 40° 15 21 29.98 29.99 15 BKN058 BKN080 OVC150 None
2018-10-23 18:00 46 36 39 65 40° 14 20 29.99 29.99 15 BKN070 BKN090 BKN150 None
2018-10-23 17:00 48 37 41 66 50° 15 22 30.01 30.01 15 FEW030 FEW065 FEW090 SCT210 None
2018-10-23 16:00 45 36 37 70 50° 16 - 30.04 30.05 15 SCT065 BKN130 BKN210 None
2018-10-23 15:00 41 36 34 80 40° 13 - 30.07 30.08 15 BKN065 BKN130 None
2018-10-23 14:00 37 34 30 86 20° 12 - 30.08 30.09 15 FEW020 FEW060 BKN130 None
2018-10-23 13:00 37 32 30 80 40° 12 - 30.08 30.09 15 FEW070 BKN130 BKN240 None
2018-10-23 12:00 36 32 29 86 40° 9 - 30.09 30.09 30 FEW065 SCT110 BKN140 BKN240 None
2018-10-23 11:00 34 30 27 86 50° 8 - 30.09 30.10 15 BKN070 OVC110 None
2018-10-23 10:00 34 30 28 86 40° 7 - 30.10 30.10 15 FEW030 SCT070 BKN140 None
2018-10-23 09:00 34 30 27 86 40° 8 - 30.09 30.10 15 FEW030 SCT070 BKN140 None
2018-10-23 08:00 36 30 31 80 70° 6 - 30.10 30.11 15 SCT025 BKN140 None
2018-10-23 07:00 34 30 27 86 50° 8 - 30.11 30.12 15 SCT029 BKN080 None
2018-10-23 06:11 36 32 29 86 50° 9 - 30.12 30.13 15 FEW040 OVC080 None
2018-10-23 06:00 37 32 30 80 50° 10 - 30.12 30.13 15 SCT043 OVC080 None
2018-10-23 05:00 39 32 34 75 50° 7 - 30.12 30.13 15 BKN037 OVC055 None
2018-10-23 04:00 37 34 31 86 20° 8 - 30.12 30.12 15 BKN038 OVC058 None
2018-10-23 03:27 37 34 31 86 20° 9 - 30.11 30.12 15 OVC042 None
2018-10-23 03:00 37 34 32 86 30° 7 - 30.12 30.12 15 OVC042 None

Support USWX by starting your Amazon purchase here.